sensor_id;sensor_type;location;lat;lon;timestamp;pressure;altitude;pressure_sealevel;temperature;humidity
70468;BME280;57934;51.532;7.684;2022-11-15T00:00:36;99747.81;;;8.80;90.67
70468;BME280;57934;51.532;7.684;2022-11-15T00:03:25;99744.22;;;8.88;91.50
70468;BME280;57934;51.532;7.684;2022-11-15T00:06:10;99747.28;;;8.92;91.75
70468;BME280;57934;51.532;7.684;2022-11-15T00:08:58;99745.06;;;9.02;91.97
70468;BME280;57934;51.532;7.684;2022-11-15T00:11:42;99747.94;;;9.07;91.99
70468;BME280;57934;51.532;7.684;2022-11-15T00:14:27;99732.34;;;9.12;92.17
70468;BME280;57934;51.532;7.684;2022-11-15T00:17:11;99738.88;;;9.23;92.28
70468;BME280;57934;51.532;7.684;2022-11-15T00:19:56;99735.84;;;9.26;92.53
70468;BME280;57934;51.532;7.684;2022-11-15T00:22:40;99736.91;;;9.38;92.85
70468;BME280;57934;51.532;7.684;2022-11-15T00:25:25;99740.75;;;9.42;92.67
70468;BME280;57934;51.532;7.684;2022-11-15T00:28:09;99731.84;;;9.50;92.65
70468;BME280;57934;51.532;7.684;2022-11-15T00:30:59;99730.66;;;9.52;93.32
70468;BME280;57934;51.532;7.684;2022-11-15T00:33:44;99725.81;;;9.56;93.42
70468;BME280;57934;51.532;7.684;2022-11-15T00:36:33;99722.97;;;9.57;93.67
70468;BME280;57934;51.532;7.684;2022-11-15T00:39:18;99723.59;;;9.66;93.55
70468;BME280;57934;51.532;7.684;2022-11-15T00:42:03;99717.31;;;9.80;93.56
70468;BME280;57934;51.532;7.684;2022-11-15T00:44:48;99724.22;;;9.95;93.24
70468;BME280;57934;51.532;7.684;2022-11-15T00:47:32;99714.88;;;9.99;93.43
70468;BME280;57934;51.532;7.684;2022-11-15T00:50:17;99717.69;;;10.11;93.04
70468;BME280;57934;51.532;7.684;2022-11-15T00:53:02;99724.00;;;10.16;93.15
70468;BME280;57934;51.532;7.684;2022-11-15T00:55:46;99721.75;;;10.20;93.02
70468;BME280;57934;51.532;7.684;2022-11-15T00:58:31;99716.28;;;10.28;92.49
70468;BME280;57934;51.532;7.684;2022-11-15T01:01:15;99719.16;;;10.26;92.84
70468;BME280;57934;51.532;7.684;2022-11-15T01:04:00;99716.69;;;10.32;93.02
70468;BME280;57934;51.532;7.684;2022-11-15T01:06:44;99718.72;;;10.36;92.46
70468;BME280;57934;51.532;7.684;2022-11-15T01:09:28;99718.34;;;10.33;92.29
70468;BME280;57934;51.532;7.684;2022-11-15T01:12:13;99716.50;;;10.40;92.74
70468;BME280;57934;51.532;7.684;2022-11-15T01:14:58;99712.81;;;10.47;92.76
70468;BME280;57934;51.532;7.684;2022-11-15T01:17:42;99709.56;;;10.52;92.10
70468;BME280;57934;51.532;7.684;2022-11-15T01:20:27;99708.56;;;10.53;92.28
70468;BME280;57934;51.532;7.684;2022-11-15T01:23:12;99704.69;;;10.56;92.13
70468;BME280;57934;51.532;7.684;2022-11-15T01:26:00;99704.66;;;10.62;92.16
70468;BME280;57934;51.532;7.684;2022-11-15T01:28:45;99702.63;;;10.71;91.44
70468;BME280;57934;51.532;7.684;2022-11-15T01:31:30;99704.00;;;10.80;91.39
70468;BME280;57934;51.532;7.684;2022-11-15T01:34:14;99702.59;;;10.78;91.12
70468;BME280;57934;51.532;7.684;2022-11-15T01:36:59;99706.03;;;10.85;91.00
70468;BME280;57934;51.532;7.684;2022-11-15T01:39:44;99709.63;;;10.90;91.17
70468;BME280;57934;51.532;7.684;2022-11-15T01:42:28;99713.88;;;10.91;90.76
70468;BME280;57934;51.532;7.684;2022-11-15T01:45:14;99705.16;;;10.91;90.57
70468;BME280;57934;51.532;7.684;2022-11-15T01:47:59;99708.38;;;10.99;90.58
70468;BME280;57934;51.532;7.684;2022-11-15T01:50:44;99704.91;;;11.06;89.94
70468;BME280;57934;51.532;7.684;2022-11-15T01:53:30;99697.19;;;11.04;90.21
70468;BME280;57934;51.532;7.684;2022-11-15T01:56:21;99696.81;;;11.01;90.15
70468;BME280;57934;51.532;7.684;2022-11-15T01:59:08;99689.88;;;11.06;89.78
70468;BME280;57934;51.532;7.684;2022-11-15T02:01:53;99681.75;;;11.08;89.96
70468;BME280;57934;51.532;7.684;2022-11-15T02:04:42;99682.94;;;11.12;89.80
70468;BME280;57934;51.532;7.684;2022-11-15T02:07:28;99677.25;;;11.15;89.36
70468;BME280;57934;51.532;7.684;2022-11-15T02:10:18;99679.69;;;11.16;89.40
70468;BME280;57934;51.532;7.684;2022-11-15T02:13:03;99682.53;;;11.15;89.33
70468;BME280;57934;51.532;7.684;2022-11-15T02:20:03;99668.41;;;11.03;89.34
70468;BME280;57934;51.532;7.684;2022-11-15T02:29:10;99671.91;;;10.90;90.27
70468;BME280;57934;51.532;7.684;2022-11-15T02:32:06;99672.31;;;10.87;90.52
70468;BME280;57934;51.532;7.684;2022-11-15T02:35:16;99675.16;;;10.92;90.73
70468;BME280;57934;51.532;7.684;2022-11-15T02:41:02;99670.25;;;10.95;90.66
70468;BME280;57934;51.532;7.684;2022-11-15T02:44:21;99666.56;;;11.03;90.01
70468;BME280;57934;51.532;7.684;2022-11-15T02:47:11;99666.97;;;11.00;90.05
70468;BME280;57934;51.532;7.684;2022-11-15T02:50:02;99661.31;;;10.96;89.73
70468;BME280;57934;51.532;7.684;2022-11-15T02:52:50;99664.53;;;10.98;90.13
70468;BME280;57934;51.532;7.684;2022-11-15T02:55:42;99660.94;;;10.93;90.27
70468;BME280;57934;51.532;7.684;2022-11-15T02:58:41;99653.03;;;10.93;90.10
70468;BME280;57934;51.532;7.684;2022-11-15T03:10:25;99659.81;;;10.69;91.17
70468;BME280;57934;51.532;7.684;2022-11-15T03:13:24;99659.22;;;10.67;91.47
70468;BME280;57934;51.532;7.684;2022-11-15T03:22:04;99657.56;;;10.72;91.69
70468;BME280;57934;51.532;7.684;2022-11-15T03:24:53;99657.38;;;10.74;91.36
70468;BME280;57934;51.532;7.684;2022-11-15T03:27:41;99662.47;;;10.69;91.66
70468;BME280;57934;51.532;7.684;2022-11-15T03:30:28;99669.31;;;10.77;91.70
70468;BME280;57934;51.532;7.684;2022-11-15T03:33:13;99678.41;;;10.81;91.83
70468;BME280;57934;51.532;7.684;2022-11-15T03:35:58;99666.06;;;10.81;91.89
70468;BME280;57934;51.532;7.684;2022-11-15T03:38:44;99662.78;;;10.86;91.67
70468;BME280;57934;51.532;7.684;2022-11-15T03:41:44;99657.28;;;10.87;92.05
70468;BME280;57934;51.532;7.684;2022-11-15T03:44:42;99665.59;;;10.91;92.36
70468;BME280;57934;51.532;7.684;2022-11-15T03:47:37;99663.53;;;10.99;92.04
70468;BME280;57934;51.532;7.684;2022-11-15T03:50:23;99655.78;;;11.05;92.16
70468;BME280;57934;51.532;7.684;2022-11-15T03:53:08;99657.16;;;11.14;91.81
70468;BME280;57934;51.532;7.684;2022-11-15T03:55:53;99653.31;;;11.16;91.84
70468;BME280;57934;51.532;7.684;2022-11-15T03:58:38;99660.16;;;11.24;91.17
70468;BME280;57934;51.532;7.684;2022-11-15T04:01:22;99656.44;;;11.32;90.76
70468;BME280;57934;51.532;7.684;2022-11-15T04:04:07;99657.84;;;11.34;90.64
70468;BME280;57934;51.532;7.684;2022-11-15T04:06:51;99647.28;;;11.34;90.63
70468;BME280;57934;51.532;7.684;2022-11-15T04:09:36;99649.13;;;11.34;90.59
70468;BME280;57934;51.532;7.684;2022-11-15T04:12:44;99645.13;;;11.25;90.99
70468;BME280;57934;51.532;7.684;2022-11-15T04:15:32;99632.63;;;11.13;91.83
70468;BME280;57934;51.532;7.684;2022-11-15T04:18:16;99635.81;;;11.15;92.05
70468;BME280;57934;51.532;7.684;2022-11-15T04:21:01;99639.88;;;11.18;91.94
70468;BME280;57934;51.532;7.684;2022-11-15T04:24:05;99635.78;;;11.22;92.17
70468;BME280;57934;51.532;7.684;2022-11-15T04:26:59;99636.56;;;11.29;91.87
70468;BME280;57934;51.532;7.684;2022-11-15T04:29:44;99631.22;;;11.36;91.71
70468;BME280;57934;51.532;7.684;2022-11-15T04:32:28;99625.28;;;11.40;91.14
70468;BME280;57934;51.532;7.684;2022-11-15T04:35:13;99627.09;;;11.46;90.71
70468;BME280;57934;51.532;7.684;2022-11-15T04:37:58;99629.06;;;11.51;90.50
70468;BME280;57934;51.532;7.684;2022-11-15T04:40:42;99622.97;;;11.51;90.33
70468;BME280;57934;51.532;7.684;2022-11-15T04:43:27;99626.97;;;11.60;89.90
70468;BME280;57934;51.532;7.684;2022-11-15T04:46:12;99628.00;;;11.59;89.58
70468;BME280;57934;51.532;7.684;2022-11-15T04:48:57;99630.84;;;11.57;89.61
70468;BME280;57934;51.532;7.684;2022-11-15T04:51:42;99628.44;;;11.56;89.76
70468;BME280;57934;51.532;7.684;2022-11-15T04:54:27;99633.69;;;11.62;89.60
70468;BME280;57934;51.532;7.684;2022-11-15T04:57:11;99620.41;;;11.69;89.31
70468;BME280;57934;51.532;7.684;2022-11-15T04:59:56;99623.56;;;11.78;88.47
70468;BME280;57934;51.532;7.684;2022-11-15T05:02:40;99619.91;;;11.79;88.08
70468;BME280;57934;51.532;7.684;2022-11-15T05:05:44;99621.91;;;11.83;87.79
70468;BME280;57934;51.532;7.684;2022-11-15T05:08:28;99615.78;;;11.83;87.98
70468;BME280;57934;51.532;7.684;2022-11-15T05:11:13;99617.22;;;11.85;87.89
70468;BME280;57934;51.532;7.684;2022-11-15T05:13:57;99614.31;;;11.68;88.90
70468;BME280;57934;51.532;7.684;2022-11-15T05:16:42;99620.94;;;11.53;90.10
70468;BME280;57934;51.532;7.684;2022-11-15T05:19:26;99622.19;;;11.50;90.23
70468;BME280;57934;51.532;7.684;2022-11-15T05:22:12;99614.22;;;11.57;90.02
70468;BME280;57934;51.532;7.684;2022-11-15T05:24:57;99618.84;;;11.61;89.28
70468;BME280;57934;51.532;7.684;2022-11-15T05:27:41;99621.41;;;11.68;88.96
70468;BME280;57934;51.532;7.684;2022-11-15T05:30:26;99613.50;;;11.68;88.71
70468;BME280;57934;51.532;7.684;2022-11-15T05:33:10;99628.97;;;11.64;88.72
70468;BME280;57934;51.532;7.684;2022-11-15T05:35:57;99625.53;;;11.64;88.71
70468;BME280;57934;51.532;7.684;2022-11-15T05:38:45;99631.03;;;11.62;88.75
70468;BME280;57934;51.532;7.684;2022-11-15T05:41:34;99631.59;;;11.64;88.81
70468;BME280;57934;51.532;7.684;2022-11-15T05:44:22;99628.41;;;11.62;88.89
70468;BME280;57934;51.532;7.684;2022-11-15T05:47:09;99626.28;;;11.71;88.42
70468;BME280;57934;51.532;7.684;2022-11-15T05:49:55;99619.53;;;11.75;88.01
70468;BME280;57934;51.532;7.684;2022-11-15T05:52:40;99612.63;;;11.74;88.02
70468;BME280;57934;51.532;7.684;2022-11-15T05:55:25;99605.94;;;11.71;88.75
70468;BME280;57934;51.532;7.684;2022-11-15T05:58:09;99600.28;;;11.68;88.89
70468;BME280;57934;51.532;7.684;2022-11-15T06:00:54;99612.69;;;11.67;89.12
70468;BME280;57934;51.532;7.684;2022-11-15T06:03:39;99615.13;;;11.69;88.96
70468;BME280;57934;51.532;7.684;2022-11-15T06:06:23;99604.94;;;11.73;89.27
70468;BME280;57934;51.532;7.684;2022-11-15T06:09:08;99615.13;;;11.69;89.04
70468;BME280;57934;51.532;7.684;2022-11-15T06:11:54;99611.09;;;11.66;89.35
70468;BME280;57934;51.532;7.684;2022-11-15T06:14:46;99618.84;;;11.61;89.30
70468;BME280;57934;51.532;7.684;2022-11-15T06:17:51;99619.13;;;11.53;89.72
70468;BME280;57934;51.532;7.684;2022-11-15T06:20:48;99621.47;;;11.36;90.18
70468;BME280;57934;51.532;7.684;2022-11-15T06:23:33;99630.69;;;11.27;90.40
70468;BME280;57934;51.532;7.684;2022-11-15T06:26:19;99630.09;;;11.25;90.88
70468;BME280;57934;51.532;7.684;2022-11-15T06:29:04;99636.81;;;11.21;91.28
70468;BME280;57934;51.532;7.684;2022-11-15T06:31:48;99643.75;;;11.15;91.37
70468;BME280;57934;51.532;7.684;2022-11-15T06:34:33;99635.81;;;11.15;91.31
70468;BME280;57934;51.532;7.684;2022-11-15T06:37:20;99641.53;;;11.12;91.12
70468;BME280;57934;51.532;7.684;2022-11-15T06:40:06;99645.19;;;11.11;91.40
70468;BME280;57934;51.532;7.684;2022-11-15T06:42:57;99652.16;;;11.06;91.77
70468;BME280;57934;51.532;7.684;2022-11-15T06:45:42;99657.81;;;11.09;91.82
70468;BME280;57934;51.532;7.684;2022-11-15T06:48:27;99644.63;;;11.09;91.66
70468;BME280;57934;51.532;7.684;2022-11-15T06:51:13;99652.03;;;11.19;91.53
70468;BME280;57934;51.532;7.684;2022-11-15T06:53:57;99659.13;;;11.25;91.04
70468;BME280;57934;51.532;7.684;2022-11-15T06:56:41;99658.09;;;11.26;90.72
70468;BME280;57934;51.532;7.684;2022-11-15T06:59:26;99663.28;;;11.39;90.19
70468;BME280;57934;51.532;7.684;2022-11-15T07:02:14;99673.66;;;11.41;89.94
70468;BME280;57934;51.532;7.684;2022-11-15T07:04:59;99669.13;;;11.48;89.86
70468;BME280;57934;51.532;7.684;2022-11-15T07:07:43;99672.94;;;11.52;89.28
70468;BME280;57934;51.532;7.684;2022-11-15T07:10:35;99675.94;;;11.62;89.06
70468;BME280;57934;51.532;7.684;2022-11-15T07:13:19;99667.34;;;11.67;88.04
70468;BME280;57934;51.532;7.684;2022-11-15T07:16:05;99674.00;;;11.76;87.56
70468;BME280;57934;51.532;7.684;2022-11-15T07:18:50;99674.38;;;11.80;87.32
70468;BME280;57934;51.532;7.684;2022-11-15T07:21:35;99668.06;;;11.81;86.64
70468;BME280;57934;51.532;7.684;2022-11-15T07:24:20;99669.06;;;11.86;86.70
70468;BME280;57934;51.532;7.684;2022-11-15T07:27:04;99681.19;;;11.94;85.83
70468;BME280;57934;51.532;7.684;2022-11-15T07:29:49;99687.22;;;12.01;85.37
70468;BME280;57934;51.532;7.684;2022-11-15T07:32:34;99691.97;;;12.11;85.40
70468;BME280;57934;51.532;7.684;2022-11-15T07:35:18;99688.63;;;12.22;84.13
70468;BME280;57934;51.532;7.684;2022-11-15T07:38:03;99680.03;;;12.27;83.42
70468;BME280;57934;51.532;7.684;2022-11-15T07:40:58;99696.66;;;12.52;81.92
70468;BME280;57934;51.532;7.684;2022-11-15T07:43:43;99697.09;;;13.16;79.92
70468;BME280;57934;51.532;7.684;2022-11-15T07:46:28;99698.75;;;13.59;76.84
70468;BME280;57934;51.532;7.684;2022-11-15T07:49:12;99704.53;;;13.68;75.78
70468;BME280;57934;51.532;7.684;2022-11-15T07:51:57;99701.97;;;13.61;75.73
70468;BME280;57934;51.532;7.684;2022-11-15T07:54:41;99700.25;;;13.55;75.30
70468;BME280;57934;51.532;7.684;2022-11-15T07:57:26;99689.00;;;13.29;76.14
70468;BME280;57934;51.532;7.684;2022-11-15T08:00:11;99698.88;;;13.04;76.94
70468;BME280;57934;51.532;7.684;2022-11-15T08:03:04;99707.88;;;12.84;77.40
70468;BME280;57934;51.532;7.684;2022-11-15T08:05:52;99702.16;;;12.69;78.02
70468;BME280;57934;51.532;7.684;2022-11-15T08:08:37;99706.06;;;12.66;77.93
70468;BME280;57934;51.532;7.684;2022-11-15T08:11:24;99699.16;;;12.65;77.75
70468;BME280;57934;51.532;7.684;2022-11-15T08:14:13;99702.31;;;12.74;77.52
70468;BME280;57934;51.532;7.684;2022-11-15T08:16:57;99698.97;;;12.97;76.53
70468;BME280;57934;51.532;7.684;2022-11-15T08:19:42;99689.94;;;13.35;74.85
70468;BME280;57934;51.532;7.684;2022-11-15T08:22:28;99695.88;;;13.60;72.89
70468;BME280;57934;51.532;7.684;2022-11-15T08:25:13;99691.25;;;13.56;72.30
70468;BME280;57934;51.532;7.684;2022-11-15T08:28:00;99691.53;;;13.78;71.70
70468;BME280;57934;51.532;7.684;2022-11-15T08:30:45;99693.28;;;14.07;70.31
70468;BME280;57934;51.532;7.684;2022-11-15T08:33:36;99696.03;;;14.13;69.19
70468;BME280;57934;51.532;7.684;2022-11-15T08:36:31;99686.44;;;14.35;68.56
70468;BME280;57934;51.532;7.684;2022-11-15T08:39:16;99694.63;;;14.69;67.24
70468;BME280;57934;51.532;7.684;2022-11-15T08:42:00;99687.53;;;14.86;65.88
70468;BME280;57934;51.532;7.684;2022-11-15T08:44:45;99699.06;;;15.20;65.03
70468;BME280;57934;51.532;7.684;2022-11-15T08:47:30;99696.03;;;15.45;63.41
70468;BME280;57934;51.532;7.684;2022-11-15T08:50:15;99693.44;;;15.05;63.93
70468;BME280;57934;51.532;7.684;2022-11-15T08:53:07;99690.66;;;15.12;64.14
70468;BME280;57934;51.532;7.684;2022-11-15T08:55:53;99691.03;;;15.32;62.87
70468;BME280;57934;51.532;7.684;2022-11-15T08:58:38;99690.47;;;15.47;62.60
70468;BME280;57934;51.532;7.684;2022-11-15T09:01:22;99690.75;;;15.62;61.88
70468;BME280;57934;51.532;7.684;2022-11-15T09:04:07;99684.47;;;15.68;61.87
70468;BME280;57934;51.532;7.684;2022-11-15T09:06:51;99689.00;;;15.68;61.62
70468;BME280;57934;51.532;7.684;2022-11-15T09:09:36;99687.38;;;15.67;61.44
70468;BME280;57934;51.532;7.684;2022-11-15T09:12:21;99683.94;;;15.83;60.67
70468;BME280;57934;51.532;7.684;2022-11-15T09:15:06;99679.50;;;15.89;60.15
70468;BME280;57934;51.532;7.684;2022-11-15T09:17:51;99682.88;;;15.84;60.48
70468;BME280;57934;51.532;7.684;2022-11-15T09:20:35;99670.78;;;15.93;60.46
70468;BME280;57934;51.532;7.684;2022-11-15T09:23:20;99672.09;;;15.74;60.58
70468;BME280;57934;51.532;7.684;2022-11-15T09:26:05;99678.16;;;15.58;60.66
70468;BME280;57934;51.532;7.684;2022-11-15T09:28:50;99675.34;;;15.47;61.24
70468;BME280;57934;51.532;7.684;2022-11-15T09:31:35;99667.59;;;15.29;61.49
70468;BME280;57934;51.532;7.684;2022-11-15T09:34:19;99675.56;;;15.29;62.31
70468;BME280;57934;51.532;7.684;2022-11-15T09:37:05;99674.72;;;15.12;62.75
70468;BME280;57934;51.532;7.684;2022-11-15T09:39:49;99655.41;;;14.99;62.54
70468;BME280;57934;51.532;7.684;2022-11-15T09:42:49;99671.69;;;14.91;62.67
70468;BME280;57934;51.532;7.684;2022-11-15T09:51:35;99651.16;;;14.58;63.29
70468;BME280;57934;51.532;7.684;2022-11-15T09:54:13;99653.69;;;14.41;63.56
70468;BME280;57934;51.532;7.684;2022-11-15T10:05:45;99649.09;;;14.25;63.46
70468;BME280;57934;51.532;7.684;2022-11-15T10:10:56;99652.09;;;14.40;63.64
70468;BME280;57934;51.532;7.684;2022-11-15T10:13:25;99661.28;;;14.49;63.04
70468;BME280;57934;51.532;7.684;2022-11-15T10:15:53;99650.47;;;14.51;62.17
70468;BME280;57934;51.532;7.684;2022-11-15T10:20:55;99641.72;;;14.50;62.22
70468;BME280;57934;51.532;7.684;2022-11-15T10:23:23;99637.41;;;14.61;61.56
70468;BME280;57934;51.532;7.684;2022-11-15T10:25:58;99635.66;;;14.67;61.14
70468;BME280;57934;51.532;7.684;2022-11-15T10:28:31;99636.44;;;14.79;60.90
70468;BME280;57934;51.532;7.684;2022-11-15T10:31:11;99629.06;;;14.69;60.48
70468;BME280;57934;51.532;7.684;2022-11-15T10:33:46;99630.28;;;14.38;60.85
70468;BME280;57934;51.532;7.684;2022-11-15T10:41:19;99612.28;;;14.40;60.67
70468;BME280;57934;51.532;7.684;2022-11-15T10:44:09;99605.84;;;14.36;60.70
70468;BME280;57934;51.532;7.684;2022-11-15T10:46:39;99591.50;;;14.49;60.18
70468;BME280;57934;51.532;7.684;2022-11-15T10:49:22;99593.81;;;14.57;60.25
70468;BME280;57934;51.532;7.684;2022-11-15T10:51:56;99582.09;;;14.70;60.24
70468;BME280;57934;51.532;7.684;2022-11-15T10:54:45;99578.59;;;14.81;59.95
70468;BME280;57934;51.532;7.684;2022-11-15T10:57:15;99566.97;;;15.16;59.30
70468;BME280;57934;51.532;7.684;2022-11-15T10:59:46;99574.19;;;15.54;58.07
70468;BME280;57934;51.532;7.684;2022-11-15T11:02:36;99561.50;;;15.95;57.09
70468;BME280;57934;51.532;7.684;2022-11-15T11:05:06;99564.97;;;16.17;56.45
70468;BME280;57934;51.532;7.684;2022-11-15T11:07:34;99562.78;;;17.12;53.72
70468;BME280;57934;51.532;7.684;2022-11-15T11:10:05;99560.13;;;17.87;51.63
70468;BME280;57934;51.532;7.684;2022-11-15T11:12:43;99561.25;;;18.01;50.47
70468;BME280;57934;51.532;7.684;2022-11-15T11:15:12;99551.78;;;18.41;49.33
70468;BME280;57934;51.532;7.684;2022-11-15T11:18:01;99559.06;;;18.61;47.79
70468;BME280;57934;51.532;7.684;2022-11-15T11:20:57;99553.97;;;18.65;47.75
70468;BME280;57934;51.532;7.684;2022-11-15T11:35:27;99535.59;;;21.43;40.71
70468;BME280;57934;51.532;7.684;2022-11-15T11:43:34;99516.34;;;23.02;37.60
70468;BME280;57934;51.532;7.684;2022-11-15T11:46:38;99516.91;;;24.15;34.64
70468;BME280;57934;51.532;7.684;2022-11-15T11:49:09;99512.66;;;24.14;33.67
70468;BME280;57934;51.532;7.684;2022-11-15T11:51:45;99508.72;;;24.47;33.43
70468;BME280;57934;51.532;7.684;2022-11-15T11:54:22;99502.28;;;24.57;32.31
70468;BME280;57934;51.532;7.684;2022-11-15T11:56:49;99500.91;;;23.68;33.34
70468;BME280;57934;51.532;7.684;2022-11-15T11:59:25;99504.75;;;20.77;37.06
70468;BME280;57934;51.532;7.684;2022-11-15T12:01:54;99506.69;;;18.70;41.66
70468;BME280;57934;51.532;7.684;2022-11-15T12:04:37;99497.28;;;17.16;45.48
70468;BME280;57934;51.532;7.684;2022-11-15T12:07:19;99496.22;;;16.31;47.01
70468;BME280;57934;51.532;7.684;2022-11-15T12:09:58;99493.66;;;15.70;48.36
70468;BME280;57934;51.532;7.684;2022-11-15T12:12:38;99496.31;;;15.32;49.26
70468;BME280;57934;51.532;7.684;2022-11-15T12:15:31;99494.13;;;15.12;50.26
70468;BME280;57934;51.532;7.684;2022-11-15T12:18:36;99488.44;;;15.03;50.72
70468;BME280;57934;51.532;7.684;2022-11-15T12:21:50;99492.06;;;14.97;51.45
70468;BME280;57934;51.532;7.684;2022-11-15T12:28:16;99482.81;;;14.83;50.16
70468;BME280;57934;51.532;7.684;2022-11-15T12:31:05;99475.06;;;14.81;49.66
70468;BME280;57934;51.532;7.684;2022-11-15T12:33:40;99469.69;;;14.76;50.06
70468;BME280;57934;51.532;7.684;2022-11-15T12:36:38;99477.47;;;14.66;49.46
70468;BME280;57934;51.532;7.684;2022-11-15T12:39:08;99474.19;;;14.59;49.60
70468;BME280;57934;51.532;7.684;2022-11-15T12:44:13;99471.94;;;14.67;49.99
70468;BME280;57934;51.532;7.684;2022-11-15T13:02:19;99450.56;;;14.45;51.33
70468;BME280;57934;51.532;7.684;2022-11-15T13:04:49;99447.50;;;14.37;51.34
70468;BME280;57934;51.532;7.684;2022-11-15T13:12:58;99431.81;;;14.35;52.42
70468;BME280;57934;51.532;7.684;2022-11-15T13:16:00;99423.63;;;14.37;52.94
70468;BME280;57934;51.532;7.684;2022-11-15T13:20:54;99423.47;;;14.26;53.02
70468;BME280;57934;51.532;7.684;2022-11-15T13:23:21;99420.94;;;14.20;53.08
70468;BME280;57934;51.532;7.684;2022-11-15T13:28:32;99419.03;;;14.15;53.61
70468;BME280;57934;51.532;7.684;2022-11-15T13:31:36;99407.84;;;14.13;54.18
70468;BME280;57934;51.532;7.684;2022-11-15T13:34:32;99400.59;;;14.08;54.34
70468;BME280;57934;51.532;7.684;2022-11-15T13:37:00;99399.22;;;14.06;55.31
70468;BME280;57934;51.532;7.684;2022-11-15T13:39:28;99406.84;;;14.02;55.06
70468;BME280;57934;51.532;7.684;2022-11-15T13:41:55;99396.50;;;14.01;54.42
70468;BME280;57934;51.532;7.684;2022-11-15T13:44:27;99398.00;;;13.97;55.16
70468;BME280;57934;51.532;7.684;2022-11-15T13:47:26;99390.28;;;13.95;55.58
70468;BME280;57934;51.532;7.684;2022-11-15T13:50:59;99390.53;;;13.94;56.05
70468;BME280;57934;51.532;7.684;2022-11-15T13:53:33;99383.19;;;13.84;56.27
70468;BME280;57934;51.532;7.684;2022-11-15T13:56:02;99385.06;;;13.83;56.41
70468;BME280;57934;51.532;7.684;2022-11-15T13:58:29;99373.66;;;13.83;56.91
70468;BME280;57934;51.532;7.684;2022-11-15T14:01:03;99375.81;;;13.86;57.13
70468;BME280;57934;51.532;7.684;2022-11-15T14:03:33;99369.38;;;13.82;57.38
70468;BME280;57934;51.532;7.684;2022-11-15T14:06:10;99377.56;;;13.80;57.73
70468;BME280;57934;51.532;7.684;2022-11-15T14:11:30;99363.53;;;13.80;57.77
70468;BME280;57934;51.532;7.684;2022-11-15T14:16:35;99353.84;;;13.74;57.65
70468;BME280;57934;51.532;7.684;2022-11-15T14:19:03;99354.00;;;13.67;58.16
70468;BME280;57934;51.532;7.684;2022-11-15T14:21:30;99354.25;;;13.66;58.34
70468;BME280;57934;51.532;7.684;2022-11-15T14:24:32;99354.59;;;13.57;58.86
70468;BME280;57934;51.532;7.684;2022-11-15T14:27:16;99345.53;;;13.53;58.97
70468;BME280;57934;51.532;7.684;2022-11-15T14:29:42;99340.69;;;13.50;59.31
70468;BME280;57934;51.532;7.684;2022-11-15T14:32:20;99335.31;;;13.45;59.67
70468;BME280;57934;51.532;7.684;2022-11-15T14:34:49;99331.38;;;13.48;59.70
70468;BME280;57934;51.532;7.684;2022-11-15T14:37:32;99331.38;;;13.48;59.78
70468;BME280;57934;51.532;7.684;2022-11-15T14:40:13;99326.66;;;13.50;59.59
70468;BME280;57934;51.532;7.684;2022-11-15T14:42:41;99327.91;;;13.47;59.31
70468;BME280;57934;51.532;7.684;2022-11-15T14:45:15;99321.81;;;13.47;59.44
70468;BME280;57934;51.532;7.684;2022-11-15T14:47:42;99318.84;;;13.43;59.74
70468;BME280;57934;51.532;7.684;2022-11-15T14:50:12;99305.03;;;13.41;60.24
70468;BME280;57934;51.532;7.684;2022-11-15T14:52:39;99299.41;;;13.38;60.20
70468;BME280;57934;51.532;7.684;2022-11-15T14:55:35;99289.50;;;13.33;60.76
70468;BME280;57934;51.532;7.684;2022-11-15T14:58:03;99285.66;;;13.24;60.72
70468;BME280;57934;51.532;7.684;2022-11-15T15:00:30;99278.59;;;13.18;61.17
70468;BME280;57934;51.532;7.684;2022-11-15T15:02:57;99272.97;;;13.14;61.29
70468;BME280;57934;51.532;7.684;2022-11-15T15:05:30;99268.63;;;13.08;62.11
70468;BME280;57934;51.532;7.684;2022-11-15T15:07:56;99264.13;;;13.08;61.45
70468;BME280;57934;51.532;7.684;2022-11-15T15:10:23;99259.06;;;13.07;61.61
70468;BME280;57934;51.532;7.684;2022-11-15T15:12:50;99259.88;;;13.07;61.99
70468;BME280;57934;51.532;7.684;2022-11-15T15:15:21;99248.25;;;13.08;62.35
70468;BME280;57934;51.532;7.684;2022-11-15T15:17:48;99247.91;;;13.05;62.88
70468;BME280;57934;51.532;7.684;2022-11-15T15:20:15;99248.88;;;12.99;63.48
70468;BME280;57934;51.532;7.684;2022-11-15T15:22:41;99246.56;;;13.02;63.68
70468;BME280;57934;51.532;7.684;2022-11-15T15:25:23;99248.63;;;13.00;63.82
70468;BME280;57934;51.532;7.684;2022-11-15T15:27:49;99241.41;;;12.96;63.93
70468;BME280;57934;51.532;7.684;2022-11-15T15:30:15;99236.78;;;12.91;64.35
70468;BME280;57934;51.532;7.684;2022-11-15T15:32:42;99235.53;;;12.94;63.92
70468;BME280;57934;51.532;7.684;2022-11-15T15:35:12;99225.19;;;12.92;64.31
70468;BME280;57934;51.532;7.684;2022-11-15T15:37:38;99232.22;;;12.86;64.65
70468;BME280;57934;51.532;7.684;2022-11-15T15:40:11;99227.63;;;12.82;64.99
70468;BME280;57934;51.532;7.684;2022-11-15T15:42:38;99217.25;;;12.80;64.82
70468;BME280;57934;51.532;7.684;2022-11-15T15:45:04;99216.13;;;12.76;64.95
70468;BME280;57934;51.532;7.684;2022-11-15T15:47:31;99219.56;;;12.77;65.18
70468;BME280;57934;51.532;7.684;2022-11-15T15:49:57;99219.56;;;12.77;65.06
70468;BME280;57934;51.532;7.684;2022-11-15T15:52:23;99215.56;;;12.74;65.17
70468;BME280;57934;51.532;7.684;2022-11-15T15:54:50;99213.53;;;12.64;65.84
70468;BME280;57934;51.532;7.684;2022-11-15T15:57:16;99213.97;;;12.61;65.67
70468;BME280;57934;51.532;7.684;2022-11-15T15:59:42;99209.16;;;12.58;65.92
70468;BME280;57934;51.532;7.684;2022-11-15T16:02:14;99204.66;;;12.59;65.79
70468;BME280;57934;51.532;7.684;2022-11-15T16:04:40;99197.66;;;12.53;65.87
70468;BME280;57934;51.532;7.684;2022-11-15T16:07:15;99194.44;;;12.51;66.17
70468;BME280;57934;51.532;7.684;2022-11-15T16:09:42;99193.41;;;12.52;66.42